South Bend, Washington
Current Conditions -  °F | °C
As of 10:53 AM on Monday 20 Oct 2014 (Local Time) from KHQM Reporting Station
Scattered Clouds Scattered Clouds  
Wind Chill: 59°   Ceiling: Unl
Heat Index: 59°   Visibility: 7mi
Dew Point: 54°   Wind: 12mph
Humidity: 83%   Direction: 140°SE
Pressure: 29.74"   Gusts: NA
Location:  46.66°N, 123.8°W
Report Text: KHQM 201753Z AUTO 14010KT 7SM SCT026 SCT120 15/12 A2974 RMK AO2 SLP075 T01500122 10156 20139 51010
Loading
Personal Weather Stations






























Interactive Weather Map
Tropical Storm Tracking
New forecast layout! Learn more

10-Day Weather Forecast

Advertisements
Track Severe Weather on mobile